sensor_id;sensor_type;location;lat;lon;timestamp;temperature;humidity
64918;HTU21D;52176;44.858;38.372;2022-07-23T00:01:24;19.20;81.14
64918;HTU21D;52176;44.858;38.372;2022-07-23T00:03:50;19.20;81.13
64918;HTU21D;52176;44.858;38.372;2022-07-23T00:06:17;19.22;81.09
64918;HTU21D;52176;44.858;38.372;2022-07-23T00:08:43;19.22;81.06
64918;HTU21D;52176;44.858;38.372;2022-07-23T00:11:09;19.24;80.98
64918;HTU21D;52176;44.858;38.372;2022-07-23T00:13:35;19.24;80.97
64918;HTU21D;52176;44.858;38.372;2022-07-23T00:16:01;19.23;80.94
64918;HTU21D;52176;44.858;38.372;2022-07-23T00:18:27;19.24;80.96
64918;HTU21D;52176;44.858;38.372;2022-07-23T00:20:53;19.26;81.00
64918;HTU21D;52176;44.858;38.372;2022-07-23T00:23:18;19.27;81.00
64918;HTU21D;52176;44.858;38.372;2022-07-23T00:25:44;19.26;81.03
64918;HTU21D;52176;44.858;38.372;2022-07-23T00:28:10;19.27;81.07
64918;HTU21D;52176;44.858;38.372;2022-07-23T00:30:36;19.28;81.18
64918;HTU21D;52176;44.858;38.372;2022-07-23T00:33:04;19.28;81.26
64918;HTU21D;52176;44.858;38.372;2022-07-23T00:35:31;19.29;81.28
64918;HTU21D;52176;44.858;38.372;2022-07-23T00:37:58;19.31;81.33
64918;HTU21D;52176;44.858;38.372;2022-07-23T00:40:24;19.32;81.30
64918;HTU21D;52176;44.858;38.372;2022-07-23T00:42:50;19.35;81.29
64918;HTU21D;52176;44.858;38.372;2022-07-23T00:45:16;19.37;81.30
64918;HTU21D;52176;44.858;38.372;2022-07-23T00:47:42;19.38;81.34
64918;HTU21D;52176;44.858;38.372;2022-07-23T00:50:08;19.40;81.36
64918;HTU21D;52176;44.858;38.372;2022-07-23T00:52:35;19.42;81.49
64918;HTU21D;52176;44.858;38.372;2022-07-23T00:55:01;19.43;81.59
64918;HTU21D;52176;44.858;38.372;2022-07-23T00:57:27;19.42;81.69
64918;HTU21D;52176;44.858;38.372;2022-07-23T00:59:52;19.42;81.88
64918;HTU21D;52176;44.858;38.372;2022-07-23T01:02:18;19.41;82.07
64918;HTU21D;52176;44.858;38.372;2022-07-23T01:04:45;19.40;82.29
64918;HTU21D;52176;44.858;38.372;2022-07-23T01:07:11;19.39;82.58
64918;HTU21D;52176;44.858;38.372;2022-07-23T01:09:37;19.36;82.80
64918;HTU21D;52176;44.858;38.372;2022-07-23T01:12:03;19.29;83.10
64918;HTU21D;52176;44.858;38.372;2022-07-23T01:14:29;19.24;83.35
64918;HTU21D;52176;44.858;38.372;2022-07-23T01:16:55;19.18;83.58
64918;HTU21D;52176;44.858;38.372;2022-07-23T01:19:21;19.14;83.85
64918;HTU21D;52176;44.858;38.372;2022-07-23T01:21:48;19.13;84.04
64918;HTU21D;52176;44.858;38.372;2022-07-23T01:24:15;19.08;84.10
64918;HTU21D;52176;44.858;38.372;2022-07-23T01:26:50;19.08;84.21
64918;HTU21D;52176;44.858;38.372;2022-07-23T01:29:16;19.07;84.33
64918;HTU21D;52176;44.858;38.372;2022-07-23T01:31:44;19.05;84.49
64918;HTU21D;52176;44.858;38.372;2022-07-23T01:34:10;19.05;84.61
64918;HTU21D;52176;44.858;38.372;2022-07-23T01:36:36;19.02;84.73
64918;HTU21D;52176;44.858;38.372;2022-07-23T01:39:03;19.01;84.82
64918;HTU21D;52176;44.858;38.372;2022-07-23T01:41:29;19.00;84.84
64918;HTU21D;52176;44.858;38.372;2022-07-23T01:43:55;19.00;84.88
64918;HTU21D;52176;44.858;38.372;2022-07-23T01:46:22;18.98;84.93
64918;HTU21D;52176;44.858;38.372;2022-07-23T01:48:49;18.93;85.00
64918;HTU21D;52176;44.858;38.372;2022-07-23T01:51:35;18.88;85.06
64918;HTU21D;52176;44.858;38.372;2022-07-23T01:54:08;18.85;85.08
64918;HTU21D;52176;44.858;38.372;2022-07-23T01:56:34;18.82;85.27
64918;HTU21D;52176;44.858;38.372;2022-07-23T01:59:00;18.77;85.35
64918;HTU21D;52176;44.858;38.372;2022-07-23T02:01:26;18.73;85.49
64918;HTU21D;52176;44.858;38.372;2022-07-23T02:03:52;18.69;85.61
64918;HTU21D;52176;44.858;38.372;2022-07-23T02:06:18;18.62;85.68
64918;HTU21D;52176;44.858;38.372;2022-07-23T02:08:44;18.58;85.74
64918;HTU21D;52176;44.858;38.372;2022-07-23T02:11:10;18.54;85.72
64918;HTU21D;52176;44.858;38.372;2022-07-23T02:13:35;18.51;85.76
64918;HTU21D;52176;44.858;38.372;2022-07-23T02:16:01;18.46;85.76
64918;HTU21D;52176;44.858;38.372;2022-07-23T02:18:28;18.42;85.77
64918;HTU21D;52176;44.858;38.372;2022-07-23T02:20:54;18.41;85.79
64918;HTU21D;52176;44.858;38.372;2022-07-23T02:23:20;18.38;85.83
64918;HTU21D;52176;44.858;38.372;2022-07-23T02:25:45;18.35;85.91
64918;HTU21D;52176;44.858;38.372;2022-07-23T02:28:11;18.33;86.00
64918;HTU21D;52176;44.858;38.372;2022-07-23T02:30:40;18.32;86.09
64918;HTU21D;52176;44.858;38.372;2022-07-23T02:33:06;18.34;86.29
64918;HTU21D;52176;44.858;38.372;2022-07-23T02:35:32;18.39;86.30
64918;HTU21D;52176;44.858;38.372;2022-07-23T02:38:01;18.46;86.25
64918;HTU21D;52176;44.858;38.372;2022-07-23T02:40:28;18.54;86.22
64918;HTU21D;52176;44.858;38.372;2022-07-23T02:42:54;18.62;86.14
64918;HTU21D;52176;44.858;38.372;2022-07-23T02:45:20;18.67;85.92
64918;HTU21D;52176;44.858;38.372;2022-07-23T02:47:46;18.71;85.82
64918;HTU21D;52176;44.858;38.372;2022-07-23T02:50:12;18.80;85.66
64918;HTU21D;52176;44.858;38.372;2022-07-23T02:52:38;18.83;85.48
64918;HTU21D;52176;44.858;38.372;2022-07-23T02:55:04;18.85;85.41
64918;HTU21D;52176;44.858;38.372;2022-07-23T02:57:30;18.85;85.37
64918;HTU21D;52176;44.858;38.372;2022-07-23T02:59:56;18.85;85.35
64918;HTU21D;52176;44.858;38.372;2022-07-23T03:02:22;18.85;85.32
64918;HTU21D;52176;44.858;38.372;2022-07-23T03:04:49;18.86;85.30
64918;HTU21D;52176;44.858;38.372;2022-07-23T03:07:16;18.87;85.31
64918;HTU21D;52176;44.858;38.372;2022-07-23T03:09:42;18.91;85.23
64918;HTU21D;52176;44.858;38.372;2022-07-23T03:12:08;18.97;85.19
64918;HTU21D;52176;44.858;38.372;2022-07-23T03:14:33;19.08;85.06
64918;HTU21D;52176;44.858;38.372;2022-07-23T03:16:59;19.25;84.86
64918;HTU21D;52176;44.858;38.372;2022-07-23T03:19:25;19.50;84.52
64918;HTU21D;52176;44.858;38.372;2022-07-23T03:21:52;19.74;84.06
64918;HTU21D;52176;44.858;38.372;2022-07-23T03:24:17;19.98;83.65
64918;HTU21D;52176;44.858;38.372;2022-07-23T03:26:43;20.28;83.16
64918;HTU21D;52176;44.858;38.372;2022-07-23T03:29:11;20.51;82.67
64918;HTU21D;52176;44.858;38.372;2022-07-23T03:31:37;20.73;82.20
64918;HTU21D;52176;44.858;38.372;2022-07-23T03:34:03;20.81;81.97
64918;HTU21D;52176;44.858;38.372;2022-07-23T03:36:29;20.76;81.97
64918;HTU21D;52176;44.858;38.372;2022-07-23T03:38:55;20.72;82.11
64918;HTU21D;52176;44.858;38.372;2022-07-23T03:41:21;20.68;82.28
64918;HTU21D;52176;44.858;38.372;2022-07-23T03:43:47;20.77;82.29
64918;HTU21D;52176;44.858;38.372;2022-07-23T03:46:13;20.91;82.01
64918;HTU21D;52176;44.858;38.372;2022-07-23T03:48:39;21.15;81.81
64918;HTU21D;52176;44.858;38.372;2022-07-23T03:51:05;21.46;81.33
64918;HTU21D;52176;44.858;38.372;2022-07-23T03:53:31;21.81;80.66
64918;HTU21D;52176;44.858;38.372;2022-07-23T03:55:57;22.14;80.03
64918;HTU21D;52176;44.858;38.372;2022-07-23T03:58:25;22.51;79.27
64918;HTU21D;52176;44.858;38.372;2022-07-23T04:00:51;22.81;78.72
64918;HTU21D;52176;44.858;38.372;2022-07-23T04:03:17;23.07;78.21
64918;HTU21D;52176;44.858;38.372;2022-07-23T04:05:43;23.34;77.82
64918;HTU21D;52176;44.858;38.372;2022-07-23T04:08:12;23.68;77.11
64918;HTU21D;52176;44.858;38.372;2022-07-23T04:10:42;23.83;76.54
64918;HTU21D;52176;44.858;38.372;2022-07-23T04:13:09;23.74;76.57
64918;HTU21D;52176;44.858;38.372;2022-07-23T04:15:35;23.58;76.87
64918;HTU21D;52176;44.858;38.372;2022-07-23T04:18:04;23.39;77.13
64918;HTU21D;52176;44.858;38.372;2022-07-23T04:20:40;23.38;77.37
64918;HTU21D;52176;44.858;38.372;2022-07-23T04:23:07;23.65;77.08
64918;HTU21D;52176;44.858;38.372;2022-07-23T04:25:33;23.98;76.41
64918;HTU21D;52176;44.858;38.372;2022-07-23T04:27:59;24.34;75.74
64918;HTU21D;52176;44.858;38.372;2022-07-23T04:30:25;24.71;74.88
64918;HTU21D;52176;44.858;38.372;2022-07-23T04:32:51;25.08;74.35
64918;HTU21D;52176;44.858;38.372;2022-07-23T04:35:22;25.49;73.57
64918;HTU21D;52176;44.858;38.372;2022-07-23T04:37:50;25.83;72.58
64918;HTU21D;52176;44.858;38.372;2022-07-23T04:40:17;26.18;71.91
64918;HTU21D;52176;44.858;38.372;2022-07-23T04:42:43;26.53;71.13
64918;HTU21D;52176;44.858;38.372;2022-07-23T04:45:09;26.85;70.45
64918;HTU21D;52176;44.858;38.372;2022-07-23T04:47:35;27.16;69.51
64918;HTU21D;52176;44.858;38.372;2022-07-23T04:50:01;27.40;68.59
64918;HTU21D;52176;44.858;38.372;2022-07-23T04:52:27;27.44;67.81
64918;HTU21D;52176;44.858;38.372;2022-07-23T04:54:54;27.31;67.72
64918;HTU21D;52176;44.858;38.372;2022-07-23T04:57:19;27.09;67.91
64918;HTU21D;52176;44.858;38.372;2022-07-23T04:59:45;27.01;67.98
64918;HTU21D;52176;44.858;38.372;2022-07-23T05:02:12;27.19;67.60
64918;HTU21D;52176;44.858;38.372;2022-07-23T05:04:39;27.51;67.01
64918;HTU21D;52176;44.858;38.372;2022-07-23T05:07:05;27.89;66.47
64918;HTU21D;52176;44.858;38.372;2022-07-23T05:09:32;28.28;65.53
64918;HTU21D;52176;44.858;38.372;2022-07-23T05:11:57;28.67;64.70
64918;HTU21D;52176;44.858;38.372;2022-07-23T05:14:24;29.04;63.96
64918;HTU21D;52176;44.858;38.372;2022-07-23T05:16:51;29.41;63.10
64918;HTU21D;52176;44.858;38.372;2022-07-23T05:19:21;29.78;61.95
64918;HTU21D;52176;44.858;38.372;2022-07-23T05:21:47;30.03;60.97
64918;HTU21D;52176;44.858;38.372;2022-07-23T05:24:13;30.31;60.48
64918;HTU21D;52176;44.858;38.372;2022-07-23T05:26:39;30.48;59.77
64918;HTU21D;52176;44.858;38.372;2022-07-23T05:29:05;30.64;59.22
64918;HTU21D;52176;44.858;38.372;2022-07-23T05:31:31;30.90;58.56
64918;HTU21D;52176;44.858;38.372;2022-07-23T05:33:57;30.92;57.58
64918;HTU21D;52176;44.858;38.372;2022-07-23T05:36:23;30.99;57.52
64918;HTU21D;52176;44.858;38.372;2022-07-23T05:38:52;31.29;56.81
64918;HTU21D;52176;44.858;38.372;2022-07-23T05:41:19;31.44;55.87
64918;HTU21D;52176;44.858;38.372;2022-07-23T05:43:45;31.38;55.33
64918;HTU21D;52176;44.858;38.372;2022-07-23T05:46:11;31.24;55.10
64918;HTU21D;52176;44.858;38.372;2022-07-23T05:48:39;31.06;54.73
64918;HTU21D;52176;44.858;38.372;2022-07-23T05:51:21;30.41;54.97
64918;HTU21D;52176;44.858;38.372;2022-07-23T05:53:48;29.79;56.08
64918;HTU21D;52176;44.858;38.372;2022-07-23T05:56:18;29.39;56.78
64918;HTU21D;52176;44.858;38.372;2022-07-23T05:58:44;29.41;57.19
64918;HTU21D;52176;44.858;38.372;2022-07-23T06:01:11;29.33;57.51
64918;HTU21D;52176;44.858;38.372;2022-07-23T06:03:48;29.14;57.80
64918;HTU21D;52176;44.858;38.372;2022-07-23T06:06:14;28.72;58.16
64918;HTU21D;52176;44.858;38.372;2022-07-23T06:08:40;28.28;58.99
64918;HTU21D;52176;44.858;38.372;2022-07-23T06:11:07;27.81;59.93
64918;HTU21D;52176;44.858;38.372;2022-07-23T06:13:33;27.83;60.81
64918;HTU21D;52176;44.858;38.372;2022-07-23T06:15:59;28.34;60.72
64918;HTU21D;52176;44.858;38.372;2022-07-23T06:18:25;29.15;59.48
64918;HTU21D;52176;44.858;38.372;2022-07-23T06:20:53;29.72;58.12
64918;HTU21D;52176;44.858;38.372;2022-07-23T06:23:20;29.97;57.19
64918;HTU21D;52176;44.858;38.372;2022-07-23T06:25:46;30.15;57.31
64918;HTU21D;52176;44.858;38.372;2022-07-23T06:28:12;30.25;56.78
64918;HTU21D;52176;44.858;38.372;2022-07-23T06:30:40;29.90;56.79
64918;HTU21D;52176;44.858;38.372;2022-07-23T06:33:07;29.49;57.07
64918;HTU21D;52176;44.858;38.372;2022-07-23T06:35:33;29.34;57.86
64918;HTU21D;52176;44.858;38.372;2022-07-23T06:37:59;29.66;57.56
64918;HTU21D;52176;44.858;38.372;2022-07-23T06:40:25;29.67;56.82
64918;HTU21D;52176;44.858;38.372;2022-07-23T06:42:51;29.38;56.93
64918;HTU21D;52176;44.858;38.372;2022-07-23T06:45:21;29.46;57.51
64918;HTU21D;52176;44.858;38.372;2022-07-23T06:47:47;30.10;56.90
64918;HTU21D;52176;44.858;38.372;2022-07-23T06:50:13;30.90;55.65
64918;HTU21D;52176;44.858;38.372;2022-07-23T06:52:41;31.65;54.14
64918;HTU21D;52176;44.858;38.372;2022-07-23T06:55:07;32.34;52.81
64918;HTU21D;52176;44.858;38.372;2022-07-23T06:57:33;32.63;51.49
64918;HTU21D;52176;44.858;38.372;2022-07-23T06:59:58;32.38;51.02
64918;HTU21D;52176;44.858;38.372;2022-07-23T07:02:24;0.00;50.82
64918;HTU21D;52176;44.858;38.372;2022-07-23T07:04:50;30.93;52.38
64918;HTU21D;52176;44.858;38.372;2022-07-23T07:07:16;30.04;53.87
64918;HTU21D;52176;44.858;38.372;2022-07-23T07:09:42;29.27;55.82
64918;HTU21D;52176;44.858;38.372;2022-07-23T07:12:08;28.58;56.89
64918;HTU21D;52176;44.858;38.372;2022-07-23T07:14:33;27.88;58.19
64918;HTU21D;52176;44.858;38.372;2022-07-23T07:16:59;27.27;59.52
64918;HTU21D;52176;44.858;38.372;2022-07-23T07:19:25;26.99;60.68
64918;HTU21D;52176;44.858;38.372;2022-07-23T07:21:51;27.39;61.28
64918;HTU21D;52176;44.858;38.372;2022-07-23T07:24:17;28.18;60.80
64918;HTU21D;52176;44.858;38.372;2022-07-23T07:26:42;29.08;59.54
64918;HTU21D;52176;44.858;38.372;2022-07-23T07:29:08;29.85;58.37
64918;HTU21D;52176;44.858;38.372;2022-07-23T07:31:34;30.41;57.30
64918;HTU21D;52176;44.858;38.372;2022-07-23T07:34:00;30.78;56.28
64918;HTU21D;52176;44.858;38.372;2022-07-23T07:36:26;31.07;55.39
64918;HTU21D;52176;44.858;38.372;2022-07-23T07:38:51;30.95;54.65
64918;HTU21D;52176;44.858;38.372;2022-07-23T07:41:17;30.61;55.25
64918;HTU21D;52176;44.858;38.372;2022-07-23T07:43:48;30.32;55.94
64918;HTU21D;52176;44.858;38.372;2022-07-23T07:46:14;30.54;55.70
64918;HTU21D;52176;44.858;38.372;2022-07-23T07:48:39;30.60;54.56
64918;HTU21D;52176;44.858;38.372;2022-07-23T07:51:05;30.16;54.88
64918;HTU21D;52176;44.858;38.372;2022-07-23T07:53:31;29.93;55.35
64918;HTU21D;52176;44.858;38.372;2022-07-23T07:55:57;30.24;55.07
64918;HTU21D;52176;44.858;38.372;2022-07-23T07:58:22;30.82;54.12
64918;HTU21D;52176;44.858;38.372;2022-07-23T08:00:48;31.15;53.56
64918;HTU21D;52176;44.858;38.372;2022-07-23T08:03:14;31.58;52.98
64918;HTU21D;52176;44.858;38.372;2022-07-23T08:05:40;32.07;51.15
64918;HTU21D;52176;44.858;38.372;2022-07-23T08:08:06;32.20;49.03
64918;HTU21D;52176;44.858;38.372;2022-07-23T08:10:32;31.80;49.68
64918;HTU21D;52176;44.858;38.372;2022-07-23T08:12:58;31.45;48.73
64918;HTU21D;52176;44.858;38.372;2022-07-23T08:15:25;30.95;49.56
64918;HTU21D;52176;44.858;38.372;2022-07-23T08:17:51;30.22;50.13
64918;HTU21D;52176;44.858;38.372;2022-07-23T08:20:19;29.43;51.16
64918;HTU21D;52176;44.858;38.372;2022-07-23T08:22:52;28.83;52.02
64918;HTU21D;52176;44.858;38.372;2022-07-23T08:25:25;28.33;52.70
64918;HTU21D;52176;44.858;38.372;2022-07-23T08:27:51;28.32;53.10
64918;HTU21D;52176;44.858;38.372;2022-07-23T08:30:17;28.57;52.43
64918;HTU21D;52176;44.858;38.372;2022-07-23T08:35:21;29.09;51.46
64918;HTU21D;52176;44.858;38.372;2022-07-23T08:37:47;29.47;51.14
64918;HTU21D;52176;44.858;38.372;2022-07-23T08:40:13;29.86;50.08
64918;HTU21D;52176;44.858;38.372;2022-07-23T08:42:39;30.30;49.79
64918;HTU21D;52176;44.858;38.372;2022-07-23T08:45:06;30.71;48.73
64918;HTU21D;52176;44.858;38.372;2022-07-23T08:47:32;30.82;47.97
64918;HTU21D;52176;44.858;38.372;2022-07-23T08:50:00;30.98;47.24
64918;HTU21D;52176;44.858;38.372;2022-07-23T08:52:26;31.35;47.28
64918;HTU21D;52176;44.858;38.372;2022-07-23T08:54:52;31.60;46.57
64918;HTU21D;52176;44.858;38.372;2022-07-23T08:57:19;31.68;46.01
64918;HTU21D;52176;44.858;38.372;2022-07-23T08:59:45;31.76;46.08
64918;HTU21D;52176;44.858;38.372;2022-07-23T09:02:11;31.83;45.83
64918;HTU21D;52176;44.858;38.372;2022-07-23T09:04:37;31.81;45.48
64918;HTU21D;52176;44.858;38.372;2022-07-23T09:07:03;31.94;45.09
64918;HTU21D;52176;44.858;38.372;2022-07-23T09:09:29;32.09;44.89
64918;HTU21D;52176;44.858;38.372;2022-07-23T09:12:05;32.08;43.84
64918;HTU21D;52176;44.858;38.372;2022-07-23T09:14:41;32.05;44.46
64918;HTU21D;52176;44.858;38.372;2022-07-23T09:17:10;32.11;44.76
64918;HTU21D;52176;44.858;38.372;2022-07-23T09:19:36;32.15;43.96
64918;HTU21D;52176;44.858;38.372;2022-07-23T09:22:21;32.14;43.81
64918;HTU21D;52176;44.858;38.372;2022-07-23T09:30:33;32.76;43.29
64918;HTU21D;52176;44.858;38.372;2022-07-23T09:33:06;32.91;43.61
64918;HTU21D;52176;44.858;38.372;2022-07-23T09:35:52;33.32;42.11
64918;HTU21D;52176;44.858;38.372;2022-07-23T09:38:19;33.36;42.47
64918;HTU21D;52176;44.858;38.372;2022-07-23T09:40:45;33.43;42.07
64918;HTU21D;52176;44.858;38.372;2022-07-23T09:43:12;33.33;41.30
64918;HTU21D;52176;44.858;38.372;2022-07-23T09:45:38;33.34;41.56
64918;HTU21D;52176;44.858;38.372;2022-07-23T09:48:11;33.15;41.44
64918;HTU21D;52176;44.858;38.372;2022-07-23T09:50:38;32.94;41.71
64918;HTU21D;52176;44.858;38.372;2022-07-23T09:53:04;33.12;41.70
64918;HTU21D;52176;44.858;38.372;2022-07-23T09:55:34;33.56;41.45
64918;HTU21D;52176;44.858;38.372;2022-07-23T09:58:06;34.06;40.72
64918;HTU21D;52176;44.858;38.372;2022-07-23T10:00:38;34.41;40.68
64918;HTU21D;52176;44.858;38.372;2022-07-23T10:03:05;34.90;40.18
64918;HTU21D;52176;44.858;38.372;2022-07-23T10:05:40;35.13;39.52
64918;HTU21D;52176;44.858;38.372;2022-07-23T10:08:41;35.01;38.68
64918;HTU21D;52176;44.858;38.372;2022-07-23T10:11:43;34.27;39.29
64918;HTU21D;52176;44.858;38.372;2022-07-23T10:14:26;33.70;40.59
64918;HTU21D;52176;44.858;38.372;2022-07-23T10:16:56;33.79;40.62
64918;HTU21D;52176;44.858;38.372;2022-07-23T10:19:22;33.99;40.37
64918;HTU21D;52176;44.858;38.372;2022-07-23T10:21:50;34.20;40.05
64918;HTU21D;52176;44.858;38.372;2022-07-23T10:24:20;34.10;40.13
64918;HTU21D;52176;44.858;38.372;2022-07-23T10:32:26;33.88;40.46
64918;HTU21D;52176;44.858;38.372;2022-07-23T10:37:44;33.57;40.89
64918;HTU21D;52176;44.858;38.372;2022-07-23T10:40:17;33.34;41.15
64918;HTU21D;52176;44.858;38.372;2022-07-23T10:42:44;32.96;41.81
64918;HTU21D;52176;44.858;38.372;2022-07-23T10:47:48;33.25;41.90
64918;HTU21D;52176;44.858;38.372;2022-07-23T10:50:24;33.52;41.22
64918;HTU21D;52176;44.858;38.372;2022-07-23T10:58:01;33.47;39.50
64918;HTU21D;52176;44.858;38.372;2022-07-23T11:00:31;32.70;40.60
64918;HTU21D;52176;44.858;38.372;2022-07-23T11:02:59;32.26;41.71
64918;HTU21D;52176;44.858;38.372;2022-07-23T11:05:26;32.28;41.46
64918;HTU21D;52176;44.858;38.372;2022-07-23T11:13:30;32.33;41.51
64918;HTU21D;52176;44.858;38.372;2022-07-23T11:34:41;33.11;40.59
64918;HTU21D;52176;44.858;38.372;2022-07-23T11:37:08;33.47;39.91
64918;HTU21D;52176;44.858;38.372;2022-07-23T11:39:34;33.40;40.12
64918;HTU21D;52176;44.858;38.372;2022-07-23T11:42:01;32.90;39.62
64918;HTU21D;52176;44.858;38.372;2022-07-23T11:44:34;31.93;41.16
64918;HTU21D;52176;44.858;38.372;2022-07-23T11:47:01;31.15;42.77
64918;HTU21D;52176;44.858;38.372;2022-07-23T11:49:27;30.68;43.77
64918;HTU21D;52176;44.858;38.372;2022-07-23T11:52:06;30.47;44.14
64918;HTU21D;52176;44.858;38.372;2022-07-23T11:54:32;30.55;44.16
64918;HTU21D;52176;44.858;38.372;2022-07-23T11:56:59;30.91;43.99
64918;HTU21D;52176;44.858;38.372;2022-07-23T11:59:26;31.18;43.58
64918;HTU21D;52176;44.858;38.372;2022-07-23T12:01:59;31.31;43.24
64918;HTU21D;52176;44.858;38.372;2022-07-23T12:04:25;31.31;43.45
64918;HTU21D;52176;44.858;38.372;2022-07-23T12:07:02;31.51;42.90
64918;HTU21D;52176;44.858;38.372;2022-07-23T12:09:28;31.49;42.56
64918;HTU21D;52176;44.858;38.372;2022-07-23T12:11:58;31.37;42.80
64918;HTU21D;52176;44.858;38.372;2022-07-23T12:14:24;31.28;43.09
64918;HTU21D;52176;44.858;38.372;2022-07-23T12:17:09;31.24;43.74
64918;HTU21D;52176;44.858;38.372;2022-07-23T12:19:34;31.49;43.29
64918;HTU21D;52176;44.858;38.372;2022-07-23T12:22:00;31.65;42.99
64918;HTU21D;52176;44.858;38.372;2022-07-23T12:24:26;31.74;43.03
64918;HTU21D;52176;44.858;38.372;2022-07-23T12:27:11;31.83;43.10
64918;HTU21D;52176;44.858;38.372;2022-07-23T12:29:37;32.03;42.66
64918;HTU21D;52176;44.858;38.372;2022-07-23T12:32:15;32.01;42.39
64918;HTU21D;52176;44.858;38.372;2022-07-23T12:34:42;31.87;42.59
64918;HTU21D;52176;44.858;38.372;2022-07-23T12:37:07;31.85;42.69
64918;HTU21D;52176;44.858;38.372;2022-07-23T12:39:33;31.78;42.63
64918;HTU21D;52176;44.858;38.372;2022-07-23T12:41:59;31.57;42.91
64918;HTU21D;52176;44.858;38.372;2022-07-23T12:44:25;31.34;43.54
64918;HTU21D;52176;44.858;38.372;2022-07-23T12:46:53;31.06;43.66
64918;HTU21D;52176;44.858;38.372;2022-07-23T12:49:28;30.76;43.96
64918;HTU21D;52176;44.858;38.372;2022-07-23T12:51:54;30.46;43.95
64918;HTU21D;52176;44.858;38.372;2022-07-23T12:54:26;30.36;44.56
64918;HTU21D;52176;44.858;38.372;2022-07-23T12:56:53;30.36;44.58
64918;HTU21D;52176;44.858;38.372;2022-07-23T12:59:19;30.32;44.86
64918;HTU21D;52176;44.858;38.372;2022-07-23T13:01:54;30.33;44.60
64918;HTU21D;52176;44.858;38.372;2022-07-23T13:04:23;30.34;44.61
64918;HTU21D;52176;44.858;38.372;2022-07-23T13:09:16;30.30;44.54
64918;HTU21D;52176;44.858;38.372;2022-07-23T13:11:43;30.13;44.45
64918;HTU21D;52176;44.858;38.372;2022-07-23T13:14:10;30.03;45.14
64918;HTU21D;52176;44.858;38.372;2022-07-23T13:16:37;30.04;44.83
64918;HTU21D;52176;44.858;38.372;2022-07-23T13:19:03;29.93;44.59
64918;HTU21D;52176;44.858;38.372;2022-07-23T13:21:29;29.81;44.04
64918;HTU21D;52176;44.858;38.372;2022-07-23T13:23:55;29.62;43.78
64918;HTU21D;52176;44.858;38.372;2022-07-23T13:26:21;29.42;44.05
64918;HTU21D;52176;44.858;38.372;2022-07-23T13:28:47;29.23;44.38
64918;HTU21D;52176;44.858;38.372;2022-07-23T13:31:13;29.13;44.79
64918;HTU21D;52176;44.858;38.372;2022-07-23T13:33:39;29.12;44.95
64918;HTU21D;52176;44.858;38.372;2022-07-23T13:36:05;29.08;44.98
64918;HTU21D;52176;44.858;38.372;2022-07-23T13:38:31;28.98;45.14
64918;HTU21D;52176;44.858;38.372;2022-07-23T13:40:57;28.78;44.90
64918;HTU21D;52176;44.858;38.372;2022-07-23T13:43:23;28.52;45.11
64918;HTU21D;52176;44.858;38.372;2022-07-23T13:45:50;28.30;45.71
64918;HTU21D;52176;44.858;38.372;2022-07-23T13:48:16;28.12;46.52
64918;HTU21D;52176;44.858;38.372;2022-07-23T13:50:44;28.08;47.01
64918;HTU21D;52176;44.858;38.372;2022-07-23T13:53:11;27.97;47.14
64918;HTU21D;52176;44.858;38.372;2022-07-23T13:55:37;27.94;47.18
64918;HTU21D;52176;44.858;38.372;2022-07-23T13:58:04;27.86;47.59
64918;HTU21D;52176;44.858;38.372;2022-07-23T14:00:30;27.86;47.99
64918;HTU21D;52176;44.858;38.372;2022-07-23T14:02:57;27.88;48.15
64918;HTU21D;52176;44.858;38.372;2022-07-23T14:05:23;27.83;48.03
64918;HTU21D;52176;44.858;38.372;2022-07-23T14:07:49;27.72;48.40
64918;HTU21D;52176;44.858;38.372;2022-07-23T14:10:17;27.66;48.81
64918;HTU21D;52176;44.858;38.372;2022-07-23T14:12:44;27.69;48.24
64918;HTU21D;52176;44.858;38.372;2022-07-23T14:15:10;27.64;47.99
64918;HTU21D;52176;44.858;38.372;2022-07-23T14:17:36;27.51;48.40
64918;HTU21D;52176;44.858;38.372;2022-07-23T14:20:03;27.46;48.37
64918;HTU21D;52176;44.858;38.372;2022-07-23T14:22:29;27.42;48.29
64918;HTU21D;52176;44.858;38.372;2022-07-23T14:24:55;27.41;48.52
64918;HTU21D;52176;44.858;38.372;2022-07-23T14:27:23;27.40;48.85
64918;HTU21D;52176;44.858;38.372;2022-07-23T14:29:48;27.44;49.05
64918;HTU21D;52176;44.858;38.372;2022-07-23T14:32:14;27.43;49.23
64918;HTU21D;52176;44.858;38.372;2022-07-23T14:34:40;27.31;49.44
64918;HTU21D;52176;44.858;38.372;2022-07-23T14:37:06;27.13;49.64
64918;HTU21D;52176;44.858;38.372;2022-07-23T14:39:32;26.98;49.95
64918;HTU21D;52176;44.858;38.372;2022-07-23T14:41:58;26.91;49.97
64918;HTU21D;52176;44.858;38.372;2022-07-23T14:44:23;26.86;50.13
64918;HTU21D;52176;44.858;38.372;2022-07-23T14:46:49;26.80;50.25
64918;HTU21D;52176;44.858;38.372;2022-07-23T14:49:15;26.70;50.23
64918;HTU21D;52176;44.858;38.372;2022-07-23T14:51:41;26.56;50.73
64918;HTU21D;52176;44.858;38.372;2022-07-23T14:54:07;26.48;50.85
64918;HTU21D;52176;44.858;38.372;2022-07-23T14:56:33;26.39;51.04
64918;HTU21D;52176;44.858;38.372;2022-07-23T14:59:02;26.33;51.21
64918;HTU21D;52176;44.858;38.372;2022-07-23T15:01:28;26.32;51.31
64918;HTU21D;52176;44.858;38.372;2022-07-23T15:03:54;26.33;51.46
64918;HTU21D;52176;44.858;38.372;2022-07-23T15:06:20;26.28;51.50
64918;HTU21D;52176;44.858;38.372;2022-07-23T15:08:46;26.20;51.59
64918;HTU21D;52176;44.858;38.372;2022-07-23T15:11:12;26.11;51.86
64918;HTU21D;52176;44.858;38.372;2022-07-23T15:13:38;25.95;52.27
64918;HTU21D;52176;44.858;38.372;2022-07-23T15:16:04;25.83;52.41
64918;HTU21D;52176;44.858;38.372;2022-07-23T15:18:30;25.75;52.54
64918;HTU21D;52176;44.858;38.372;2022-07-23T15:20:56;25.67;52.72
64918;HTU21D;52176;44.858;38.372;2022-07-23T15:23:22;25.59;52.90
64918;HTU21D;52176;44.858;38.372;2022-07-23T15:25:47;25.49;53.03
64918;HTU21D;52176;44.858;38.372;2022-07-23T15:28:13;25.43;53.33
64918;HTU21D;52176;44.858;38.372;2022-07-23T15:30:39;25.34;53.70
64918;HTU21D;52176;44.858;38.372;2022-07-23T15:33:05;25.29;53.89
64918;HTU21D;52176;44.858;38.372;2022-07-23T15:35:31;25.23;54.09
64918;HTU21D;52176;44.858;38.372;2022-07-23T15:37:57;25.19;54.03
64918;HTU21D;52176;44.858;38.372;2022-07-23T15:40:23;25.13;54.07
64918;HTU21D;52176;44.858;38.372;2022-07-23T15:42:49;25.07;54.16
64918;HTU21D;52176;44.858;38.372;2022-07-23T15:45:15;24.99;54.27
64918;HTU21D;52176;44.858;38.372;2022-07-23T15:47:41;24.92;54.64
64918;HTU21D;52176;44.858;38.372;2022-07-23T15:50:08;24.85;54.72
64918;HTU21D;52176;44.858;38.372;2022-07-23T15:52:35;24.76;54.98
64918;HTU21D;52176;44.858;38.372;2022-07-23T15:55:01;24.64;55.36